createdAt,value
2022-10-05T00:00:16.464Z,2.30
2022-10-05T00:01:16.450Z,2.40
2022-10-05T00:02:16.440Z,2.40
2022-10-05T00:03:16.426Z,2.00
2022-10-05T00:04:16.536Z,2.40
2022-10-05T00:05:16.486Z,2.20
2022-10-05T00:06:16.527Z,2.00
2022-10-05T00:07:16.377Z,2.20
2022-10-05T00:08:16.368Z,1.90
2022-10-05T00:09:16.351Z,1.80
2022-10-05T00:10:16.341Z,1.90
2022-10-05T00:11:16.328Z,2.00
2022-10-05T00:12:16.318Z,2.30
2022-10-05T00:13:16.306Z,2.10
2022-10-05T00:14:16.294Z,2.50
2022-10-05T00:15:16.278Z,1.90
2022-10-05T00:16:16.370Z,2.40
2022-10-05T00:17:16.257Z,2.00
2022-10-05T00:18:16.248Z,1.50
2022-10-05T00:19:16.231Z,1.90
2022-10-05T00:20:16.219Z,2.20
2022-10-05T00:21:16.208Z,2.00
2022-10-05T00:22:16.227Z,2.20
2022-10-05T00:23:16.183Z,2.10
2022-10-05T00:24:16.173Z,1.90
2022-10-05T00:25:16.158Z,2.30
2022-10-05T00:26:16.151Z,2.60
2022-10-05T00:27:16.134Z,3.10
2022-10-05T00:28:16.226Z,1.80
2022-10-05T00:29:16.112Z,2.00
2022-10-05T00:30:16.101Z,1.90
2022-10-05T00:31:16.129Z,2.00
2022-10-05T00:32:16.076Z,2.40
2022-10-05T00:33:16.074Z,2.40
2022-10-05T00:34:16.052Z,2.70
2022-10-05T00:35:16.242Z,2.20
2022-10-05T00:36:16.028Z,1.80
2022-10-05T00:37:16.014Z,2.10
2022-10-05T00:38:16.022Z,2.10
2022-10-05T00:39:15.990Z,2.20
2022-10-05T00:40:15.980Z,2.00
2022-10-05T00:41:15.968Z,2.70
2022-10-05T00:42:15.957Z,1.80
2022-10-05T00:43:15.943Z,1.90
2022-10-05T00:44:15.932Z,3.10
2022-10-05T00:45:15.919Z,2.80
2022-10-05T00:46:15.986Z,2.20
2022-10-05T00:47:15.895Z,2.10
2022-10-05T00:48:15.889Z,2.20
2022-10-05T00:49:15.871Z,2.70
2022-10-05T00:50:15.862Z,2.60
2022-10-05T00:51:15.897Z,2.80
2022-10-05T00:52:15.840Z,3.20
2022-10-05T00:53:15.824Z,2.40
2022-10-05T00:54:18.370Z,2.70
2022-10-05T00:55:15.799Z,3.10
2022-10-05T00:56:15.790Z,2.40
2022-10-05T00:57:15.776Z,3.40
2022-10-05T00:58:15.767Z,2.80
2022-10-05T00:59:15.754Z,3.00
2022-10-05T01:00:15.743Z,3.20
2022-10-05T01:01:15.775Z,3.40
2022-10-05T01:02:15.804Z,2.10
2022-10-05T01:03:15.717Z,3.60
2022-10-05T01:04:15.695Z,2.90
2022-10-05T01:05:15.682Z,3.00
2022-10-05T01:06:15.672Z,2.60
2022-10-05T01:07:15.657Z,2.80
2022-10-05T01:08:15.667Z,2.70
2022-10-05T01:09:15.636Z,3.30
2022-10-05T01:10:15.643Z,2.80
2022-10-05T01:11:15.611Z,2.90
2022-10-05T01:12:15.603Z,3.40
2022-10-05T01:13:15.595Z,2.70
2022-10-05T01:14:15.577Z,3.30
2022-10-05T01:15:15.563Z,2.20
2022-10-05T01:16:15.585Z,3.40
2022-10-05T01:17:15.540Z,2.70
2022-10-05T01:18:15.533Z,2.60
2022-10-05T01:19:15.515Z,2.90
2022-10-05T01:20:15.511Z,2.00
2022-10-05T01:21:15.493Z,2.50
2022-10-05T01:22:15.485Z,3.20
2022-10-05T01:23:15.468Z,3.10
2022-10-05T01:24:15.458Z,2.70
2022-10-05T01:25:15.444Z,3.10
2022-10-05T01:26:15.454Z,2.80
2022-10-05T01:27:15.421Z,2.10
2022-10-05T01:28:15.533Z,2.80
2022-10-05T01:29:15.400Z,2.50
2022-10-05T01:30:15.390Z,2.20
2022-10-05T01:31:15.417Z,2.60
2022-10-05T01:32:15.362Z,2.40
2022-10-05T01:33:15.352Z,2.50
2022-10-05T01:34:15.339Z,2.20
2022-10-05T01:35:15.326Z,3.00
2022-10-05T01:36:15.324Z,1.70
2022-10-05T01:37:15.302Z,2.20
2022-10-05T01:38:15.294Z,2.50
2022-10-05T01:39:15.278Z,2.40
2022-10-05T01:40:15.273Z,2.50
2022-10-05T01:41:15.256Z,3.30
2022-10-05T01:42:15.264Z,2.40
2022-10-05T01:43:15.232Z,2.30
2022-10-05T01:44:15.222Z,2.40
2022-10-05T01:45:15.207Z,2.50
2022-10-05T01:46:15.239Z,1.90
2022-10-05T01:47:15.184Z,1.90
2022-10-05T01:48:15.179Z,2.70
2022-10-05T01:49:15.186Z,2.90
2022-10-05T01:50:15.152Z,2.50
2022-10-05T01:51:15.247Z,1.90
2022-10-05T01:52:15.130Z,2.70
2022-10-05T01:53:15.118Z,2.50
2022-10-05T01:54:15.103Z,2.20
2022-10-05T01:55:15.090Z,2.70
2022-10-05T01:56:15.079Z,2.00
2022-10-05T01:57:15.070Z,2.70
2022-10-05T01:58:15.073Z,3.20
2022-10-05T01:59:15.043Z,2.50
2022-10-05T02:00:15.032Z,2.00
2022-10-05T02:01:15.063Z,2.40
2022-10-05T02:02:15.108Z,1.80
2022-10-05T02:03:14.995Z,2.00
2022-10-05T02:04:25.577Z,2.00
2022-10-05T02:05:14.972Z,2.40
2022-10-05T02:06:14.962Z,2.60
2022-10-05T02:07:14.947Z,2.30
2022-10-05T02:08:14.940Z,2.70
2022-10-05T02:09:14.924Z,3.10
2022-10-05T02:10:14.920Z,2.40
2022-10-05T02:11:14.899Z,2.30
2022-10-05T02:12:14.890Z,1.70
2022-10-05T02:13:14.880Z,2.40
2022-10-05T02:14:14.974Z,3.10
2022-10-05T02:15:14.854Z,2.30
2022-10-05T02:16:14.958Z,2.50
2022-10-05T02:17:14.831Z,2.50
2022-10-05T02:18:14.821Z,2.30
2022-10-05T02:19:14.807Z,2.10
2022-10-05T02:20:14.795Z,2.10
2022-10-05T02:21:14.784Z,1.80
2022-10-05T02:22:14.773Z,2.40
2022-10-05T02:23:14.758Z,2.40
2022-10-05T02:24:14.747Z,2.50
2022-10-05T02:25:14.737Z,2.20
2022-10-05T02:26:14.725Z,2.10
2022-10-05T02:27:14.710Z,2.30
2022-10-05T02:28:14.742Z,2.20
2022-10-05T02:29:14.687Z,1.80
2022-10-05T02:30:16.740Z,2.10
2022-10-05T02:31:14.708Z,2.60
2022-10-05T02:32:14.655Z,2.30
2022-10-05T02:33:14.642Z,2.10
2022-10-05T02:34:14.630Z,2.10
2022-10-05T02:35:14.617Z,2.10
2022-10-05T02:36:14.607Z,2.70
2022-10-05T02:37:14.592Z,2.80
2022-10-05T02:38:14.583Z,2.50
2022-10-05T02:39:14.568Z,2.00
2022-10-05T02:40:14.558Z,2.20
2022-10-05T02:41:14.547Z,2.20
2022-10-05T02:42:14.535Z,1.50
2022-10-05T02:43:14.543Z,2.20
2022-10-05T02:44:14.510Z,1.70
2022-10-05T02:45:14.498Z,2.60
2022-10-05T02:46:14.628Z,2.40
2022-10-05T02:47:14.474Z,2.00
2022-10-05T02:48:14.463Z,1.80
2022-10-05T02:49:14.451Z,2.40
2022-10-05T02:50:14.440Z,2.50
2022-10-05T02:51:14.426Z,2.00
2022-10-05T02:52:14.416Z,2.40
2022-10-05T02:53:14.403Z,2.00
2022-10-05T02:54:14.392Z,2.20
2022-10-05T02:55:14.379Z,2.40
2022-10-05T02:56:14.385Z,2.20
2022-10-05T02:57:14.356Z,2.00
2022-10-05T02:58:14.348Z,1.80
2022-10-05T02:59:14.336Z,2.30
2022-10-05T03:00:14.323Z,2.20
2022-10-05T03:01:14.364Z,1.60
2022-10-05T03:02:14.407Z,1.80
2022-10-05T03:03:14.284Z,2.30
2022-10-05T03:04:14.274Z,2.00
2022-10-05T03:05:14.260Z,2.00
2022-10-05T03:06:14.251Z,2.30
2022-10-05T03:07:14.235Z,2.00
2022-10-05T03:08:14.226Z,2.20
2022-10-05T03:09:14.212Z,2.00
2022-10-05T03:10:14.203Z,1.10
2022-10-05T03:11:14.188Z,1.80
2022-10-05T03:12:14.177Z,1.60
2022-10-05T03:13:14.168Z,1.90
2022-10-05T03:14:14.162Z,2.00
2022-10-05T03:15:14.151Z,1.60
2022-10-05T03:16:14.295Z,1.70
2022-10-05T03:17:14.117Z,1.70
2022-10-05T03:18:14.125Z,2.00
2022-10-05T03:19:14.095Z,2.10
2022-10-05T03:20:14.081Z,1.60
2022-10-05T03:21:14.072Z,2.00
2022-10-05T03:22:14.060Z,1.60
2022-10-05T03:23:14.049Z,2.40
2022-10-05T03:24:14.033Z,1.40
2022-10-05T03:25:14.026Z,2.00
2022-10-05T03:26:14.026Z,2.00
2022-10-05T03:27:14.002Z,1.70
2022-10-05T03:28:14.044Z,2.10
2022-10-05T03:29:13.975Z,2.10
2022-10-05T03:30:13.965Z,2.00
2022-10-05T03:31:14.044Z,1.90
2022-10-05T03:32:13.939Z,1.60
2022-10-05T03:33:13.932Z,2.20
2022-10-05T03:34:14.067Z,1.80
2022-10-05T03:35:13.909Z,1.80
2022-10-05T03:36:13.891Z,2.50
2022-10-05T03:37:13.898Z,1.60
2022-10-05T03:38:13.866Z,2.80
2022-10-05T03:39:13.855Z,2.90
2022-10-05T03:40:13.842Z,2.30
2022-10-05T03:41:13.831Z,2.40
2022-10-05T03:42:13.819Z,2.10
2022-10-05T03:43:13.807Z,2.60
2022-10-05T03:44:13.794Z,1.90
2022-10-05T03:45:13.783Z,1.90
2022-10-05T03:46:13.787Z,2.40
2022-10-05T03:47:13.760Z,2.00
2022-10-05T03:48:13.756Z,2.30
2022-10-05T03:49:13.751Z,2.00
2022-10-05T03:50:13.739Z,2.80
2022-10-05T03:51:13.713Z,2.40
2022-10-05T03:52:13.696Z,2.60
2022-10-05T03:53:13.687Z,2.60
2022-10-05T03:54:13.675Z,2.30
2022-10-05T03:55:13.663Z,2.70
2022-10-05T03:56:13.649Z,2.30
2022-10-05T03:57:13.641Z,2.20
2022-10-05T03:58:13.626Z,3.00
2022-10-05T03:59:13.616Z,3.20
2022-10-05T04:00:13.601Z,3.10
2022-10-05T04:01:13.652Z,2.20
2022-10-05T04:02:13.596Z,2.50
2022-10-05T04:03:13.566Z,2.40
2022-10-05T04:04:13.554Z,3.00
2022-10-05T04:05:13.543Z,2.90
2022-10-05T04:06:13.553Z,1.80
2022-10-05T04:07:13.520Z,2.20
2022-10-05T04:08:13.506Z,3.00
2022-10-05T04:09:13.498Z,1.90
2022-10-05T04:10:13.482Z,2.00
2022-10-05T04:11:13.473Z,2.30
2022-10-05T04:12:13.457Z,2.80
2022-10-05T04:13:13.447Z,3.10
2022-10-05T04:14:13.435Z,3.20
2022-10-05T04:15:18.583Z,3.10
2022-10-05T04:16:13.471Z,2.20
2022-10-05T04:17:13.400Z,2.60
2022-10-05T04:18:13.387Z,3.00
2022-10-05T04:19:13.377Z,2.60
2022-10-05T04:20:13.362Z,2.90
2022-10-05T04:21:13.353Z,3.80
2022-10-05T04:22:13.420Z,2.40
2022-10-05T04:23:13.329Z,2.20
2022-10-05T04:24:13.315Z,3.30
2022-10-05T04:25:13.308Z,2.90
2022-10-05T04:26:13.293Z,2.60
2022-10-05T04:27:13.281Z,2.20
2022-10-05T04:28:13.358Z,2.70
2022-10-05T04:29:13.262Z,3.30
2022-10-05T04:30:13.262Z,2.90
2022-10-05T04:31:13.285Z,2.00
2022-10-05T04:32:13.244Z,1.80
2022-10-05T04:33:13.212Z,3.10
2022-10-05T04:34:13.206Z,2.40
2022-10-05T04:35:13.214Z,2.10
2022-10-05T04:36:13.175Z,2.20
2022-10-05T04:37:13.162Z,2.40
2022-10-05T04:38:13.169Z,3.00
2022-10-05T04:39:13.141Z,2.40
2022-10-05T04:40:13.125Z,2.70
2022-10-05T04:41:13.116Z,2.70
2022-10-05T04:42:13.105Z,3.10
2022-10-05T04:43:13.091Z,3.40
2022-10-05T04:44:13.078Z,2.90
2022-10-05T04:45:13.071Z,2.80
2022-10-05T04:46:13.132Z,3.40
2022-10-05T04:47:13.049Z,3.00
2022-10-05T04:48:13.030Z,3.00
2022-10-05T04:49:13.020Z,3.10
2022-10-05T04:50:13.006Z,2.30
2022-10-05T04:51:12.997Z,3.50
2022-10-05T04:52:12.996Z,3.80
2022-10-05T04:53:12.973Z,3.60
2022-10-05T04:54:12.977Z,3.00
2022-10-05T04:55:12.949Z,2.70
2022-10-05T04:56:12.933Z,2.50
2022-10-05T04:57:12.925Z,3.50
2022-10-05T04:58:12.911Z,3.50
2022-10-05T04:59:12.901Z,2.90
2022-10-05T05:00:12.887Z,3.10
2022-10-05T05:01:12.947Z,3.50
2022-10-05T05:02:12.864Z,2.90
2022-10-05T05:03:12.853Z,3.70
2022-10-05T05:04:12.881Z,3.10
2022-10-05T05:05:12.831Z,3.10
2022-10-05T05:06:17.206Z,2.90
2022-10-05T05:07:12.823Z,4.30
2022-10-05T05:08:12.791Z,3.40
2022-10-05T05:09:12.782Z,3.00
2022-10-05T05:10:12.786Z,3.00
2022-10-05T05:11:16.758Z,3.20
2022-10-05T05:12:12.744Z,3.30
2022-10-05T05:13:12.747Z,2.60
2022-10-05T05:14:12.728Z,3.40
2022-10-05T05:15:12.710Z,2.80
2022-10-05T05:16:12.797Z,3.60
2022-10-05T05:17:13.390Z,2.80
2022-10-05T05:18:12.672Z,2.90
2022-10-05T05:19:12.663Z,3.60
2022-10-05T05:20:12.649Z,2.80
2022-10-05T05:21:12.641Z,2.80
2022-10-05T05:22:12.626Z,3.70
2022-10-05T05:23:12.615Z,2.80
2022-10-05T05:24:12.601Z,3.10
2022-10-05T05:25:12.593Z,3.60
2022-10-05T05:26:12.597Z,2.90
2022-10-05T05:27:12.567Z,2.60
2022-10-05T05:28:12.601Z,2.40
2022-10-05T05:29:12.543Z,3.10
2022-10-05T05:30:12.532Z,2.70
2022-10-05T05:31:12.707Z,2.70
2022-10-05T05:32:12.506Z,3.40
2022-10-05T05:33:12.498Z,2.80
2022-10-05T05:34:12.482Z,2.50
2022-10-05T05:35:12.474Z,2.80
2022-10-05T05:36:12.458Z,2.40
2022-10-05T05:37:12.449Z,2.70
2022-10-05T05:38:12.436Z,3.00
2022-10-05T05:39:12.425Z,2.70
2022-10-05T05:40:12.411Z,2.90
2022-10-05T05:41:12.404Z,2.10
2022-10-05T05:42:12.406Z,2.20
2022-10-05T05:43:12.376Z,2.80
2022-10-05T05:44:12.368Z,2.70
2022-10-05T05:45:12.354Z,1.80
2022-10-05T05:46:12.368Z,2.10
2022-10-05T05:47:12.950Z,2.40
2022-10-05T05:48:12.315Z,2.60
2022-10-05T05:49:12.306Z,3.20
2022-10-05T05:50:12.378Z,2.60
2022-10-05T05:51:12.281Z,2.50
2022-10-05T05:52:12.267Z,2.10
2022-10-05T05:53:12.257Z,2.90
2022-10-05T05:54:12.244Z,2.50
2022-10-05T05:55:12.232Z,3.00
2022-10-05T05:56:12.219Z,2.30
2022-10-05T05:57:12.210Z,2.80
2022-10-05T05:58:12.216Z,2.90
2022-10-05T05:59:12.184Z,2.60
2022-10-05T06:00:12.174Z,2.50
2022-10-05T06:01:30.684Z,2.50
2022-10-05T06:02:12.334Z,2.80
2022-10-05T06:03:12.234Z,3.50
2022-10-05T06:04:12.201Z,2.70
2022-10-05T06:05:12.118Z,2.50
2022-10-05T06:06:12.098Z,2.60
2022-10-05T06:07:12.089Z,2.70
2022-10-05T06:08:12.074Z,2.40
2022-10-05T06:09:12.064Z,2.40
2022-10-05T06:10:12.053Z,2.90
2022-10-05T06:11:12.040Z,2.30
2022-10-05T06:12:12.029Z,2.70
2022-10-05T06:13:12.017Z,3.30
2022-10-05T06:14:12.023Z,2.80
2022-10-05T06:15:11.994Z,2.80
2022-10-05T06:16:12.013Z,3.50
2022-10-05T06:17:11.970Z,2.40
2022-10-05T06:18:11.955Z,2.80
2022-10-05T06:19:11.946Z,2.30
2022-10-05T06:20:11.930Z,3.40
2022-10-05T06:21:11.923Z,3.00
2022-10-05T06:22:11.908Z,2.40
2022-10-05T06:23:11.897Z,2.60
2022-10-05T06:24:11.883Z,2.20
2022-10-05T06:25:11.901Z,1.80
2022-10-05T06:26:11.858Z,2.30
2022-10-05T06:27:11.850Z,2.20
2022-10-05T06:28:11.947Z,2.80
2022-10-05T06:29:11.826Z,2.90
2022-10-05T06:30:11.835Z,2.30
2022-10-05T06:31:11.845Z,2.20
2022-10-05T06:32:11.788Z,2.60
2022-10-05T06:33:11.778Z,2.20
2022-10-05T06:34:11.766Z,2.10
2022-10-05T06:35:11.755Z,2.20
2022-10-05T06:36:11.741Z,2.50
2022-10-05T06:37:11.732Z,2.40
2022-10-05T06:38:11.715Z,2.40
2022-10-05T06:39:11.707Z,1.70
2022-10-05T06:40:11.695Z,3.20
2022-10-05T06:41:11.682Z,2.40
2022-10-05T06:42:11.669Z,2.70
2022-10-05T06:43:11.659Z,2.10
2022-10-05T06:44:11.648Z,2.20
2022-10-05T06:45:11.639Z,2.50
2022-10-05T06:46:11.766Z,1.90
2022-10-05T06:47:11.612Z,2.20
2022-10-05T06:48:11.599Z,1.70
2022-10-05T06:49:11.590Z,2.50
2022-10-05T06:50:11.577Z,2.50
2022-10-05T06:51:11.564Z,2.80
2022-10-05T06:52:11.553Z,2.70
2022-10-05T06:53:11.582Z,3.60
2022-10-05T06:54:11.528Z,2.50
2022-10-05T06:55:14.164Z,1.60
2022-10-05T06:56:11.506Z,2.10
2022-10-05T06:57:11.497Z,2.50
2022-10-05T06:58:11.482Z,1.90
2022-10-05T06:59:11.472Z,2.00
2022-10-05T07:00:11.458Z,1.70
2022-10-05T07:01:11.522Z,1.80
2022-10-05T07:02:11.497Z,1.60
2022-10-05T07:03:11.427Z,2.00
2022-10-05T07:04:11.411Z,2.70
2022-10-05T07:05:11.403Z,1.60
2022-10-05T07:06:11.389Z,2.40
2022-10-05T07:07:11.380Z,2.40
2022-10-05T07:08:11.369Z,1.30
2022-10-05T07:09:11.357Z,1.90
2022-10-05T07:10:11.343Z,1.30
2022-10-05T07:11:11.353Z,1.90
2022-10-05T07:12:11.320Z,1.10
2022-10-05T07:13:11.310Z,1.50
2022-10-05T07:14:11.298Z,1.20
2022-10-05T07:15:11.288Z,1.90
2022-10-05T07:16:11.331Z,1.90
2022-10-05T07:17:11.263Z,2.40
2022-10-05T07:18:11.274Z,1.40
2022-10-05T07:19:11.242Z,1.30
2022-10-05T07:20:11.230Z,2.10
2022-10-05T07:21:11.223Z,1.40
2022-10-05T07:22:11.250Z,1.70
2022-10-05T07:23:11.262Z,1.50
2022-10-05T07:24:11.225Z,1.90
2022-10-05T07:25:11.200Z,1.10
2022-10-05T07:26:11.160Z,2.10
2022-10-05T07:27:11.151Z,1.50
2022-10-05T07:28:11.171Z,1.50
2022-10-05T07:29:11.128Z,1.50
2022-10-05T07:30:11.117Z,2.30
2022-10-05T07:31:11.135Z,1.50
2022-10-05T07:32:11.093Z,1.50
2022-10-05T07:33:11.084Z,1.10
2022-10-05T07:34:11.138Z,2.10
2022-10-05T07:35:11.060Z,1.90
2022-10-05T07:36:11.052Z,1.90
2022-10-05T07:37:11.037Z,1.90
2022-10-05T07:38:11.032Z,1.80
2022-10-05T07:39:11.015Z,1.90
2022-10-05T07:40:11.007Z,2.10
2022-10-05T07:41:10.994Z,1.70
2022-10-05T07:42:10.986Z,2.10
2022-10-05T07:43:10.986Z,1.80
2022-10-05T07:44:12.931Z,1.50
2022-10-05T07:45:10.952Z,2.30
2022-10-05T07:46:11.044Z,1.40
2022-10-05T07:47:10.930Z,1.30
2022-10-05T07:48:10.923Z,2.60
2022-10-05T07:49:10.909Z,1.80
2022-10-05T07:50:11.031Z,2.00
2022-10-05T07:51:10.887Z,2.60
2022-10-05T07:52:10.880Z,1.20
2022-10-05T07:53:10.867Z,1.70
2022-10-05T07:54:10.857Z,1.30
2022-10-05T07:55:10.846Z,2.40
2022-10-05T07:56:10.837Z,1.90
2022-10-05T07:57:10.825Z,1.70
2022-10-05T07:58:10.818Z,1.30
2022-10-05T07:59:10.806Z,1.70
2022-10-05T08:00:10.795Z,1.10
2022-10-05T08:01:10.782Z,2.00
2022-10-05T08:02:10.954Z,1.70
2022-10-05T08:03:10.848Z,1.30
2022-10-05T08:04:10.752Z,1.10
2022-10-05T08:05:10.742Z,2.20
2022-10-05T08:06:10.753Z,1.40
2022-10-05T08:07:10.770Z,1.20
2022-10-05T08:08:12.330Z,1.50
2022-10-05T08:09:10.700Z,1.50
2022-10-05T08:10:10.689Z,1.20
2022-10-05T08:11:10.678Z,1.50
2022-10-05T08:12:10.762Z,1.80
2022-10-05T08:13:10.658Z,1.30
2022-10-05T08:14:10.649Z,1.50
2022-10-05T08:15:10.636Z,1.60
2022-10-05T08:16:10.667Z,1.50
2022-10-05T08:17:10.617Z,1.60
2022-10-05T08:18:10.607Z,2.00
2022-10-05T08:19:10.593Z,1.30
2022-10-05T08:20:10.586Z,1.40
2022-10-05T08:21:10.574Z,1.60
2022-10-05T08:22:10.594Z,1.90
2022-10-05T08:23:10.554Z,1.50
2022-10-05T08:24:10.549Z,1.80
2022-10-05T08:25:10.536Z,1.50
2022-10-05T08:26:10.525Z,1.60
2022-10-05T08:27:10.519Z,1.00
2022-10-05T08:28:10.521Z,1.30
2022-10-05T08:29:13.749Z,1.20
2022-10-05T08:30:10.486Z,1.40
2022-10-05T08:31:10.567Z,1.40
2022-10-05T08:32:10.464Z,1.20
2022-10-05T08:33:10.454Z,1.20
2022-10-05T08:34:10.444Z,1.50
2022-10-05T08:35:10.436Z,1.30
2022-10-05T08:36:10.426Z,2.50
2022-10-05T08:37:10.412Z,3.10
2022-10-05T08:38:10.491Z,2.80
2022-10-05T08:39:10.396Z,2.70
2022-10-05T08:40:10.391Z,3.10
2022-10-05T08:41:10.374Z,2.60
2022-10-05T08:42:10.369Z,2.80
2022-10-05T08:43:10.376Z,2.80
2022-10-05T08:44:10.348Z,2.50
2022-10-05T08:45:10.337Z,2.60
2022-10-05T08:46:10.449Z,2.60
2022-10-05T08:47:10.319Z,2.60
2022-10-05T08:48:10.312Z,2.50
2022-10-05T08:49:10.299Z,2.80
2022-10-05T08:50:10.292Z,2.90
2022-10-05T08:51:10.281Z,2.30
2022-10-05T08:52:10.275Z,2.40
2022-10-05T08:53:10.262Z,2.40
2022-10-05T08:54:10.277Z,3.10
2022-10-05T08:55:10.243Z,2.30
2022-10-05T08:56:10.236Z,3.00
2022-10-05T08:57:10.239Z,3.20
2022-10-05T08:58:10.219Z,2.90
2022-10-05T08:59:10.206Z,2.40
2022-10-05T09:00:10.200Z,2.80
2022-10-05T09:01:10.257Z,2.90
2022-10-05T09:02:10.232Z,2.60
2022-10-05T09:03:10.171Z,2.90
2022-10-05T09:04:10.166Z,2.60
2022-10-05T09:05:10.155Z,3.00
2022-10-05T09:06:10.164Z,2.30
2022-10-05T09:07:10.135Z,3.10
2022-10-05T09:08:10.129Z,2.50
2022-10-05T09:09:10.119Z,2.70
2022-10-05T09:10:10.133Z,2.60
2022-10-05T09:11:10.099Z,2.90
2022-10-05T09:12:10.095Z,2.60
2022-10-05T09:13:10.083Z,2.90
2022-10-05T09:14:10.076Z,2.70
2022-10-05T09:15:26.673Z,2.80
2022-10-05T09:16:10.145Z,2.50
2022-10-05T09:17:10.049Z,2.80
2022-10-05T09:18:10.044Z,3.00
2022-10-05T09:19:10.032Z,2.70
2022-10-05T09:20:10.029Z,2.70
2022-10-05T09:21:10.064Z,3.00
2022-10-05T09:22:10.012Z,2.40
2022-10-05T09:23:09.997Z,3.00
2022-10-05T09:24:09.992Z,3.10
2022-10-05T09:25:09.987Z,2.70
2022-10-05T09:26:09.995Z,2.90
2022-10-05T09:27:09.964Z,3.00
2022-10-05T09:28:09.996Z,2.70
2022-10-05T09:29:09.949Z,2.90
2022-10-05T09:30:09.942Z,2.70
2022-10-05T09:31:09.947Z,2.80
2022-10-05T09:32:14.197Z,2.50
2022-10-05T09:33:10.116Z,3.00
2022-10-05T09:34:09.912Z,3.00
2022-10-05T09:35:09.899Z,3.00
2022-10-05T09:36:09.893Z,2.30
2022-10-05T09:37:09.886Z,2.70
2022-10-05T09:38:09.877Z,3.00
2022-10-05T09:39:09.866Z,2.80
2022-10-05T09:40:09.863Z,2.80
2022-10-05T09:41:09.852Z,3.10
2022-10-05T09:42:09.875Z,2.90
2022-10-05T09:43:09.933Z,3.10
2022-10-05T09:44:09.832Z,2.80
2022-10-05T09:45:09.819Z,2.90
2022-10-05T09:46:09.885Z,2.60
2022-10-05T09:47:09.803Z,3.00
2022-10-05T09:48:09.814Z,2.70
2022-10-05T09:49:09.788Z,3.30
2022-10-05T09:50:09.846Z,2.80
2022-10-05T09:51:09.773Z,2.60
2022-10-05T09:52:09.767Z,3.20
2022-10-05T09:53:09.756Z,2.80
2022-10-05T09:54:09.750Z,2.60
2022-10-05T09:55:09.740Z,3.10
2022-10-05T09:56:09.735Z,3.20
2022-10-05T09:57:09.724Z,2.50
2022-10-05T09:58:09.745Z,2.30
2022-10-05T09:59:09.713Z,2.50
2022-10-05T10:00:09.834Z,2.40
2022-10-05T10:01:22.118Z,2.80
2022-10-05T10:02:09.717Z,2.80
2022-10-05T10:03:09.750Z,2.60
2022-10-05T10:04:09.675Z,2.50
2022-10-05T10:05:09.665Z,2.70
2022-10-05T10:06:09.659Z,2.90
2022-10-05T10:07:09.648Z,2.80
2022-10-05T10:08:09.643Z,3.00
2022-10-05T10:09:09.643Z,2.50
2022-10-05T10:10:09.696Z,2.50
2022-10-05T10:11:09.620Z,2.80
2022-10-05T10:12:09.618Z,2.80
2022-10-05T10:13:09.608Z,2.70
2022-10-05T10:14:09.638Z,2.70
2022-10-05T10:15:09.591Z,2.30
2022-10-05T10:16:09.675Z,2.20
2022-10-05T10:17:09.578Z,2.70
2022-10-05T10:18:09.573Z,2.80
2022-10-05T10:19:09.564Z,2.80
2022-10-05T10:20:09.648Z,2.40
2022-10-05T10:21:09.550Z,2.40
2022-10-05T10:22:09.545Z,2.70
2022-10-05T10:23:09.533Z,2.40
2022-10-05T10:24:09.530Z,2.40
2022-10-05T10:25:09.521Z,2.30
2022-10-05T10:26:09.517Z,2.60
2022-10-05T10:27:09.505Z,3.00
2022-10-05T10:28:09.547Z,2.50
2022-10-05T10:29:09.494Z,2.80
2022-10-05T10:30:09.512Z,3.20
2022-10-05T10:31:09.536Z,2.30
2022-10-05T10:32:09.474Z,2.60
2022-10-05T10:33:09.466Z,2.60
2022-10-05T10:34:09.461Z,2.30
2022-10-05T10:35:09.463Z,2.40
2022-10-05T10:36:09.461Z,2.60
2022-10-05T10:37:09.451Z,2.30
2022-10-05T10:38:09.438Z,2.70
2022-10-05T10:39:09.430Z,2.50
2022-10-05T10:40:09.424Z,2.60
2022-10-05T10:41:09.415Z,2.40
2022-10-05T10:42:09.430Z,2.30
2022-10-05T10:43:09.600Z,2.10
2022-10-05T10:44:09.395Z,2.30
2022-10-05T10:45:09.393Z,2.10
2022-10-05T10:46:09.497Z,2.40
2022-10-05T10:47:09.374Z,2.30
2022-10-05T10:48:09.373Z,2.50
2022-10-05T10:49:09.362Z,2.40
2022-10-05T10:50:09.357Z,2.40
2022-10-05T10:51:09.346Z,2.40
2022-10-05T10:52:09.342Z,2.60
2022-10-05T10:53:09.336Z,2.20
2022-10-05T10:54:09.331Z,2.00
2022-10-05T10:55:09.323Z,2.20
2022-10-05T10:56:09.318Z,2.40
2022-10-05T10:57:09.311Z,2.10
2022-10-05T10:58:13.646Z,2.20
2022-10-05T10:59:09.297Z,1.90
2022-10-05T11:00:09.294Z,2.50
2022-10-05T11:01:09.284Z,2.40
2022-10-05T11:02:09.330Z,2.50
2022-10-05T11:03:09.342Z,2.50
2022-10-05T11:04:09.271Z,3.00
2022-10-05T11:05:09.264Z,2.30
2022-10-05T11:06:09.257Z,2.10
2022-10-05T11:07:09.252Z,2.40
2022-10-05T11:08:09.243Z,2.60
2022-10-05T11:09:09.237Z,2.40
2022-10-05T11:10:09.234Z,2.10
2022-10-05T11:11:09.330Z,2.30
2022-10-05T11:12:09.221Z,2.40
2022-10-05T11:13:09.214Z,2.30
2022-10-05T11:14:09.210Z,2.10
2022-10-05T11:15:09.202Z,2.40
2022-10-05T11:16:09.202Z,2.50
2022-10-05T11:17:09.191Z,2.40
2022-10-05T11:18:09.209Z,2.00
2022-10-05T11:19:09.178Z,2.10
2022-10-05T11:20:09.209Z,2.40
2022-10-05T11:21:09.187Z,2.20
2022-10-05T11:22:09.163Z,2.20
2022-10-05T11:23:09.156Z,2.30
2022-10-05T11:24:09.151Z,2.20
2022-10-05T11:25:09.144Z,2.10
2022-10-05T11:26:09.139Z,2.20
2022-10-05T11:27:09.200Z,2.20
2022-10-05T11:28:09.205Z,2.30
2022-10-05T11:29:09.122Z,2.10
2022-10-05T11:30:09.119Z,2.40
2022-10-05T11:32:09.105Z,2.00
2022-10-05T11:33:09.102Z,2.00
2022-10-05T11:34:09.130Z,2.50
2022-10-05T11:35:09.090Z,2.40
2022-10-05T11:36:09.087Z,2.40
2022-10-05T11:37:09.080Z,2.50
2022-10-05T11:38:09.074Z,2.30
2022-10-05T11:39:09.073Z,2.40
2022-10-05T11:40:09.062Z,1.90
2022-10-05T11:41:09.059Z,2.00
2022-10-05T11:42:09.062Z,2.90
2022-10-05T11:43:09.049Z,1.90
2022-10-05T11:44:09.040Z,2.60
2022-10-05T11:45:09.037Z,2.20
2022-10-05T11:46:09.072Z,1.90
2022-10-05T11:47:09.028Z,2.60
2022-10-05T11:48:09.019Z,2.40
2022-10-05T11:49:09.033Z,2.40
2022-10-05T11:50:09.028Z,2.20
2022-10-05T11:51:09.004Z,2.20
2022-10-05T11:52:09.000Z,2.20
2022-10-05T11:53:08.996Z,2.00
2022-10-05T11:54:08.989Z,1.90
2022-10-05T11:55:11.676Z,2.40
2022-10-05T11:56:08.979Z,2.10
2022-10-05T11:57:08.975Z,2.10
2022-10-05T11:58:08.971Z,2.10
2022-10-05T11:59:08.963Z,2.40
2022-10-05T12:00:08.962Z,2.30
2022-10-05T12:01:08.953Z,2.30
2022-10-05T12:02:08.950Z,2.10
2022-10-05T12:03:09.096Z,2.10
2022-10-05T12:04:09.070Z,1.80
2022-10-05T12:05:08.937Z,1.70
2022-10-05T12:06:08.955Z,1.90
2022-10-05T12:07:08.933Z,1.80
2022-10-05T12:08:08.921Z,2.00
2022-10-05T12:09:08.941Z,1.60
2022-10-05T12:10:08.928Z,1.90
2022-10-05T12:11:08.913Z,1.70
2022-10-05T12:12:08.902Z,1.60
2022-10-05T12:13:08.916Z,1.80
2022-10-05T12:14:08.902Z,1.90
2022-10-05T12:15:08.886Z,1.40
2022-10-05T12:16:08.923Z,1.80
2022-10-05T12:17:08.889Z,1.80
2022-10-05T12:18:08.895Z,1.80
2022-10-05T12:20:08.860Z,1.70
2022-10-05T12:21:08.877Z,1.70
2022-10-05T12:22:08.884Z,1.70
2022-10-05T12:23:08.850Z,1.70
2022-10-05T12:25:08.837Z,1.60
2022-10-05T12:26:08.839Z,1.90
2022-10-05T12:27:08.826Z,1.70
2022-10-05T12:28:08.852Z,1.50
2022-10-05T12:29:08.825Z,1.60
2022-10-05T12:30:08.818Z,1.80
2022-10-05T12:31:08.908Z,1.90
2022-10-05T12:32:08.809Z,1.50
2022-10-05T12:33:08.802Z,1.70
2022-10-05T12:34:08.799Z,1.40
2022-10-05T12:35:08.792Z,1.70
2022-10-05T12:36:08.788Z,1.30
2022-10-05T12:37:08.783Z,1.40
2022-10-05T12:38:08.802Z,1.20
2022-10-05T12:39:08.875Z,1.60
2022-10-05T12:40:08.771Z,1.80
2022-10-05T12:41:08.764Z,1.50
2022-10-05T12:42:08.768Z,1.80
2022-10-05T12:43:08.757Z,1.60
2022-10-05T12:44:08.754Z,1.80
2022-10-05T12:45:08.752Z,1.70
2022-10-05T12:47:08.744Z,1.60
2022-10-05T12:48:08.736Z,1.60
2022-10-05T12:49:08.733Z,1.50
2022-10-05T12:50:08.726Z,1.50
2022-10-05T12:51:08.723Z,1.30
2022-10-05T12:52:08.919Z,1.70
2022-10-05T12:53:08.716Z,1.70
2022-10-05T12:54:08.743Z,1.40
2022-10-05T12:55:08.706Z,1.50
2022-10-05T12:56:08.700Z,1.60
2022-10-05T12:57:08.699Z,1.60
2022-10-05T12:58:08.694Z,1.40
2022-10-05T12:59:08.692Z,1.70
2022-10-05T13:00:08.685Z,1.40
2022-10-05T13:01:08.736Z,1.30
2022-10-05T13:02:08.804Z,1.30
2022-10-05T13:03:08.673Z,1.80
2022-10-05T13:04:08.667Z,1.30
2022-10-05T13:05:08.663Z,1.60
2022-10-05T13:06:08.659Z,1.40
2022-10-05T13:07:08.656Z,1.60
2022-10-05T13:08:08.649Z,1.50
2022-10-05T13:10:08.664Z,1.40
2022-10-05T13:11:14.066Z,1.60
2022-10-05T13:12:08.632Z,1.60
2022-10-05T13:13:08.627Z,1.50
2022-10-05T13:15:08.622Z,1.50
2022-10-05T13:16:08.675Z,1.50
2022-10-05T13:17:08.614Z,2.00
2022-10-05T13:18:08.607Z,1.50
2022-10-05T13:19:08.705Z,1.40
2022-10-05T13:20:08.599Z,1.60
2022-10-05T13:21:08.596Z,1.70
2022-10-05T13:22:08.592Z,1.30
2022-10-05T13:23:08.589Z,1.30
2022-10-05T13:24:08.584Z,1.50